sensor_id;sensor_type;location;lat;lon;timestamp;P1;durP1;ratioP1;P2;durP2;ratioP2
7051;SDS011;3567;52.444;13.556;2022-11-11T00:00:10;10.35;;;3.13;;
7051;SDS011;3567;52.444;13.556;2022-11-11T00:02:36;10.48;;;2.97;;
7051;SDS011;3567;52.444;13.556;2022-11-11T00:05:01;10.60;;;2.60;;
7051;SDS011;3567;52.444;13.556;2022-11-11T00:07:27;7.22;;;3.03;;
7051;SDS011;3567;52.444;13.556;2022-11-11T00:09:52;11.68;;;3.55;;
7051;SDS011;3567;52.444;13.556;2022-11-11T00:12:17;7.50;;;2.50;;
7051;SDS011;3567;52.444;13.556;2022-11-11T00:14:43;10.45;;;3.38;;
7051;SDS011;3567;52.444;13.556;2022-11-11T00:17:11;11.05;;;3.28;;
7051;SDS011;3567;52.444;13.556;2022-11-11T00:19:55;11.20;;;3.08;;
7051;SDS011;3567;52.444;13.556;2022-11-11T00:22:39;5.82;;;2.55;;
7051;SDS011;3567;52.444;13.556;2022-11-11T00:25:23;9.10;;;3.35;;
7051;SDS011;3567;52.444;13.556;2022-11-11T00:27:49;11.32;;;3.35;;
7051;SDS011;3567;52.444;13.556;2022-11-11T00:30:14;8.25;;;2.85;;
7051;SDS011;3567;52.444;13.556;2022-11-11T00:32:40;10.20;;;2.72;;
7051;SDS011;3567;52.444;13.556;2022-11-11T00:35:05;6.90;;;3.08;;
7051;SDS011;3567;52.444;13.556;2022-11-11T00:37:50;11.70;;;3.30;;
7051;SDS011;3567;52.444;13.556;2022-11-11T00:40:15;8.02;;;3.13;;
7051;SDS011;3567;52.444;13.556;2022-11-11T00:42:41;8.50;;;3.00;;
7051;SDS011;3567;52.444;13.556;2022-11-11T00:45:06;10.80;;;3.40;;
7051;SDS011;3567;52.444;13.556;2022-11-11T00:47:33;13.90;;;3.38;;
7051;SDS011;3567;52.444;13.556;2022-11-11T00:50:24;12.57;;;3.53;;
7051;SDS011;3567;52.444;13.556;2022-11-11T00:53:11;14.25;;;3.70;;
7051;SDS011;3567;52.444;13.556;2022-11-11T00:55:39;6.72;;;2.78;;
7051;SDS011;3567;52.444;13.556;2022-11-11T00:58:04;10.63;;;3.10;;
7051;SDS011;3567;52.444;13.556;2022-11-11T01:00:30;7.60;;;3.10;;
7051;SDS011;3567;52.444;13.556;2022-11-11T01:02:56;7.40;;;3.25;;
7051;SDS011;3567;52.444;13.556;2022-11-11T01:05:23;10.05;;;3.72;;
7051;SDS011;3567;52.444;13.556;2022-11-11T01:07:48;13.23;;;3.78;;
7051;SDS011;3567;52.444;13.556;2022-11-11T01:10:15;14.45;;;3.50;;
7051;SDS011;3567;52.444;13.556;2022-11-11T01:13:01;9.70;;;2.90;;
7051;SDS011;3567;52.444;13.556;2022-11-11T01:15:36;8.43;;;2.97;;
7051;SDS011;3567;52.444;13.556;2022-11-11T01:18:02;10.15;;;3.88;;
7051;SDS011;3567;52.444;13.556;2022-11-11T01:20:28;10.75;;;3.97;;
7051;SDS011;3567;52.444;13.556;2022-11-11T01:22:53;10.65;;;3.60;;
7051;SDS011;3567;52.444;13.556;2022-11-11T01:25:19;8.77;;;3.30;;
7051;SDS011;3567;52.444;13.556;2022-11-11T01:27:44;14.18;;;4.07;;
7051;SDS011;3567;52.444;13.556;2022-11-11T01:30:09;8.85;;;2.88;;
7051;SDS011;3567;52.444;13.556;2022-11-11T01:32:38;7.18;;;2.92;;
7051;SDS011;3567;52.444;13.556;2022-11-11T01:35:04;8.63;;;3.53;;
7051;SDS011;3567;52.444;13.556;2022-11-11T01:37:33;12.60;;;3.10;;
7051;SDS011;3567;52.444;13.556;2022-11-11T01:39:59;12.70;;;3.38;;
7051;SDS011;3567;52.444;13.556;2022-11-11T01:42:24;11.68;;;3.47;;
7051;SDS011;3567;52.444;13.556;2022-11-11T01:44:50;16.95;;;4.63;;
7051;SDS011;3567;52.444;13.556;2022-11-11T01:47:15;10.00;;;3.00;;
7051;SDS011;3567;52.444;13.556;2022-11-11T01:52:37;7.60;;;3.22;;
7051;SDS011;3567;52.444;13.556;2022-11-11T01:55:08;10.07;;;3.78;;
7051;SDS011;3567;52.444;13.556;2022-11-11T01:57:38;12.18;;;3.45;;
7051;SDS011;3567;52.444;13.556;2022-11-11T02:00:23;15.57;;;3.45;;
7051;SDS011;3567;52.444;13.556;2022-11-11T02:02:56;8.95;;;3.30;;
7051;SDS011;3567;52.444;13.556;2022-11-11T02:05:25;11.60;;;3.80;;
7051;SDS011;3567;52.444;13.556;2022-11-11T02:08:21;8.30;;;3.38;;
7051;SDS011;3567;52.444;13.556;2022-11-11T02:11:03;10.68;;;3.85;;
7051;SDS011;3567;52.444;13.556;2022-11-11T02:13:33;9.95;;;3.38;;
7051;SDS011;3567;52.444;13.556;2022-11-11T02:16:21;12.40;;;3.72;;
7051;SDS011;3567;52.444;13.556;2022-11-11T02:18:47;10.05;;;3.13;;
7051;SDS011;3567;52.444;13.556;2022-11-11T02:21:13;13.30;;;3.75;;
7051;SDS011;3567;52.444;13.556;2022-11-11T02:23:57;10.18;;;3.00;;
7051;SDS011;3567;52.444;13.556;2022-11-11T02:26:26;9.90;;;2.95;;
7051;SDS011;3567;52.444;13.556;2022-11-11T02:28:53;7.93;;;2.90;;
7051;SDS011;3567;52.444;13.556;2022-11-11T02:31:19;10.57;;;3.83;;
7051;SDS011;3567;52.444;13.556;2022-11-11T02:33:51;11.73;;;3.85;;
7051;SDS011;3567;52.444;13.556;2022-11-11T02:36:17;11.07;;;3.88;;
7051;SDS011;3567;52.444;13.556;2022-11-11T02:38:42;17.67;;;4.35;;
7051;SDS011;3567;52.444;13.556;2022-11-11T02:41:08;13.82;;;4.32;;
7051;SDS011;3567;52.444;13.556;2022-11-11T02:43:52;9.93;;;3.63;;
7051;SDS011;3567;52.444;13.556;2022-11-11T02:46:17;21.17;;;18.70;;
7051;SDS011;3567;52.444;13.556;2022-11-11T02:48:42;16.92;;;12.23;;
7051;SDS011;3567;52.444;13.556;2022-11-11T02:51:08;16.42;;;11.07;;
7051;SDS011;3567;52.444;13.556;2022-11-11T02:53:33;20.02;;;13.35;;
7051;SDS011;3567;52.444;13.556;2022-11-11T02:55:59;13.80;;;7.20;;
7051;SDS011;3567;52.444;13.556;2022-11-11T02:58:24;7.70;;;4.72;;
7051;SDS011;3567;52.444;13.556;2022-11-11T03:00:49;11.65;;;5.65;;
7051;SDS011;3567;52.444;13.556;2022-11-11T03:03:15;9.55;;;6.38;;
7051;SDS011;3567;52.444;13.556;2022-11-11T03:05:40;17.27;;;7.70;;
7051;SDS011;3567;52.444;13.556;2022-11-11T03:08:05;13.80;;;6.00;;
7051;SDS011;3567;52.444;13.556;2022-11-11T03:10:31;15.75;;;4.82;;
7051;SDS011;3567;52.444;13.556;2022-11-11T03:12:56;14.85;;;5.07;;
7051;SDS011;3567;52.444;13.556;2022-11-11T03:15:22;10.50;;;4.85;;
7051;SDS011;3567;52.444;13.556;2022-11-11T03:17:47;11.98;;;3.53;;
7051;SDS011;3567;52.444;13.556;2022-11-11T03:20:13;9.85;;;3.83;;
7051;SDS011;3567;52.444;13.556;2022-11-11T03:23:04;10.10;;;3.72;;
7051;SDS011;3567;52.444;13.556;2022-11-11T03:25:31;12.50;;;4.05;;
7051;SDS011;3567;52.444;13.556;2022-11-11T03:28:04;9.27;;;4.25;;
7051;SDS011;3567;52.444;13.556;2022-11-11T03:30:38;6.45;;;3.65;;
7051;SDS011;3567;52.444;13.556;2022-11-11T03:33:05;9.63;;;4.43;;
7051;SDS011;3567;52.444;13.556;2022-11-11T03:35:31;5.38;;;3.55;;
7051;SDS011;3567;52.444;13.556;2022-11-11T03:37:56;8.65;;;3.85;;
7051;SDS011;3567;52.444;13.556;2022-11-11T03:41:01;7.32;;;3.85;;
7051;SDS011;3567;52.444;13.556;2022-11-11T03:43:28;8.93;;;3.95;;
7051;SDS011;3567;52.444;13.556;2022-11-11T03:45:55;7.97;;;3.97;;
7051;SDS011;3567;52.444;13.556;2022-11-11T03:48:22;9.68;;;3.90;;
7051;SDS011;3567;52.444;13.556;2022-11-11T03:50:49;8.77;;;4.28;;
7051;SDS011;3567;52.444;13.556;2022-11-11T03:53:16;10.82;;;4.10;;
7051;SDS011;3567;52.444;13.556;2022-11-11T03:55:43;10.30;;;4.35;;
7051;SDS011;3567;52.444;13.556;2022-11-11T03:58:09;14.38;;;4.47;;
7051;SDS011;3567;52.444;13.556;2022-11-11T04:00:35;8.00;;;3.97;;
7051;SDS011;3567;52.444;13.556;2022-11-11T04:03:11;8.57;;;3.35;;
7051;SDS011;3567;52.444;13.556;2022-11-11T04:05:56;6.82;;;4.13;;
7051;SDS011;3567;52.444;13.556;2022-11-11T04:08:41;10.68;;;4.30;;
7051;SDS011;3567;52.444;13.556;2022-11-11T04:11:26;11.30;;;3.83;;
7051;SDS011;3567;52.444;13.556;2022-11-11T04:13:53;9.45;;;4.03;;
7051;SDS011;3567;52.444;13.556;2022-11-11T04:16:41;10.57;;;4.65;;
7051;SDS011;3567;52.444;13.556;2022-11-11T04:19:07;9.88;;;3.35;;
7051;SDS011;3567;52.444;13.556;2022-11-11T04:21:51;10.27;;;4.40;;
7051;SDS011;3567;52.444;13.556;2022-11-11T04:24:17;8.02;;;3.72;;
7051;SDS011;3567;52.444;13.556;2022-11-11T04:27:06;7.97;;;3.97;;
7051;SDS011;3567;52.444;13.556;2022-11-11T04:29:33;8.13;;;4.22;;
7051;SDS011;3567;52.444;13.556;2022-11-11T04:32:03;12.98;;;3.70;;
7051;SDS011;3567;52.444;13.556;2022-11-11T04:34:52;12.27;;;4.30;;
7051;SDS011;3567;52.444;13.556;2022-11-11T04:37:20;11.38;;;4.10;;
7051;SDS011;3567;52.444;13.556;2022-11-11T04:39:47;10.77;;;3.35;;
7051;SDS011;3567;52.444;13.556;2022-11-11T04:42:31;11.38;;;3.60;;
7051;SDS011;3567;52.444;13.556;2022-11-11T04:44:58;8.93;;;4.07;;
7051;SDS011;3567;52.444;13.556;2022-11-11T04:47:52;10.95;;;4.30;;
7051;SDS011;3567;52.444;13.556;2022-11-11T04:50:21;19.65;;;4.55;;
7051;SDS011;3567;52.444;13.556;2022-11-11T04:52:47;11.40;;;3.90;;
7051;SDS011;3567;52.444;13.556;2022-11-11T04:55:13;12.18;;;4.65;;
7051;SDS011;3567;52.444;13.556;2022-11-11T04:57:58;13.23;;;5.55;;
7051;SDS011;3567;52.444;13.556;2022-11-11T05:00:23;10.68;;;4.20;;
7051;SDS011;3567;52.444;13.556;2022-11-11T05:02:52;11.30;;;4.57;;
7051;SDS011;3567;52.444;13.556;2022-11-11T05:05:37;12.98;;;4.38;;
7051;SDS011;3567;52.444;13.556;2022-11-11T05:08:42;14.90;;;6.22;;
7051;SDS011;3567;52.444;13.556;2022-11-11T05:11:30;15.23;;;6.10;;
7051;SDS011;3567;52.444;13.556;2022-11-11T05:13:59;14.38;;;7.75;;
7051;SDS011;3567;52.444;13.556;2022-11-11T05:16:51;12.05;;;4.40;;
7051;SDS011;3567;52.444;13.556;2022-11-11T05:19:41;10.68;;;5.03;;
7051;SDS011;3567;52.444;13.556;2022-11-11T05:22:26;12.75;;;4.93;;
7051;SDS011;3567;52.444;13.556;2022-11-11T05:24:57;6.93;;;4.10;;
7051;SDS011;3567;52.444;13.556;2022-11-11T05:27:41;11.85;;;4.60;;
7051;SDS011;3567;52.444;13.556;2022-11-11T05:30:07;12.38;;;6.05;;
7051;SDS011;3567;52.444;13.556;2022-11-11T05:32:34;14.57;;;8.20;;
7051;SDS011;3567;52.444;13.556;2022-11-11T05:34:59;14.20;;;7.38;;
7051;SDS011;3567;52.444;13.556;2022-11-11T05:37:25;12.20;;;5.72;;
7051;SDS011;3567;52.444;13.556;2022-11-11T05:39:50;9.50;;;4.47;;
7051;SDS011;3567;52.444;13.556;2022-11-11T05:42:16;9.25;;;4.25;;
7051;SDS011;3567;52.444;13.556;2022-11-11T05:44:41;11.10;;;4.72;;
7051;SDS011;3567;52.444;13.556;2022-11-11T05:47:06;14.10;;;6.90;;
7051;SDS011;3567;52.444;13.556;2022-11-11T05:49:32;11.90;;;4.97;;
7051;SDS011;3567;52.444;13.556;2022-11-11T05:51:58;15.85;;;4.30;;
7051;SDS011;3567;52.444;13.556;2022-11-11T05:54:23;14.50;;;4.38;;
7051;SDS011;3567;52.444;13.556;2022-11-11T05:56:49;11.32;;;5.43;;
7051;SDS011;3567;52.444;13.556;2022-11-11T05:59:14;11.63;;;4.45;;
7051;SDS011;3567;52.444;13.556;2022-11-11T06:01:39;19.55;;;7.93;;
7051;SDS011;3567;52.444;13.556;2022-11-11T06:04:05;10.02;;;4.47;;
7051;SDS011;3567;52.444;13.556;2022-11-11T06:06:31;10.05;;;4.88;;
7051;SDS011;3567;52.444;13.556;2022-11-11T06:08:58;8.45;;;4.28;;
7051;SDS011;3567;52.444;13.556;2022-11-11T06:11:23;13.38;;;4.38;;
7051;SDS011;3567;52.444;13.556;2022-11-11T06:13:49;24.83;;;13.02;;
7051;SDS011;3567;52.444;13.556;2022-11-11T06:16:14;9.90;;;5.25;;
7051;SDS011;3567;52.444;13.556;2022-11-11T06:18:40;6.22;;;3.90;;
7051;SDS011;3567;52.444;13.556;2022-11-11T06:21:06;13.25;;;4.35;;
7051;SDS011;3567;52.444;13.556;2022-11-11T06:23:31;11.63;;;5.93;;
7051;SDS011;3567;52.444;13.556;2022-11-11T06:25:57;10.93;;;4.57;;
7051;SDS011;3567;52.444;13.556;2022-11-11T06:31:17;12.32;;;4.47;;
7051;SDS011;3567;52.444;13.556;2022-11-11T06:33:45;11.20;;;4.28;;
7051;SDS011;3567;52.444;13.556;2022-11-11T06:36:12;10.82;;;3.70;;
7051;SDS011;3567;52.444;13.556;2022-11-11T06:38:39;6.43;;;4.10;;
7051;SDS011;3567;52.444;13.556;2022-11-11T06:41:05;8.98;;;4.00;;
7051;SDS011;3567;52.444;13.556;2022-11-11T06:43:31;11.40;;;4.55;;
7051;SDS011;3567;52.444;13.556;2022-11-11T06:45:57;7.38;;;4.03;;
7051;SDS011;3567;52.444;13.556;2022-11-11T06:48:23;9.20;;;3.95;;
7051;SDS011;3567;52.444;13.556;2022-11-11T06:50:49;10.20;;;4.30;;
7051;SDS011;3567;52.444;13.556;2022-11-11T06:53:16;8.75;;;3.80;;
7051;SDS011;3567;52.444;13.556;2022-11-11T06:55:43;7.78;;;3.83;;
7051;SDS011;3567;52.444;13.556;2022-11-11T06:58:10;5.32;;;3.42;;
7051;SDS011;3567;52.444;13.556;2022-11-11T07:00:35;12.73;;;4.38;;
7051;SDS011;3567;52.444;13.556;2022-11-11T07:03:01;9.48;;;3.80;;
7051;SDS011;3567;52.444;13.556;2022-11-11T07:05:27;11.32;;;3.90;;
7051;SDS011;3567;52.444;13.556;2022-11-11T07:07:52;8.68;;;3.67;;
7051;SDS011;3567;52.444;13.556;2022-11-11T07:10:18;9.65;;;3.40;;
7051;SDS011;3567;52.444;13.556;2022-11-11T07:12:43;11.95;;;3.90;;
7051;SDS011;3567;52.444;13.556;2022-11-11T07:15:09;5.30;;;3.03;;
7051;SDS011;3567;52.444;13.556;2022-11-11T07:17:35;10.25;;;4.20;;
7051;SDS011;3567;52.444;13.556;2022-11-11T07:20:00;11.45;;;3.83;;
7051;SDS011;3567;52.444;13.556;2022-11-11T07:22:25;7.28;;;3.38;;
7051;SDS011;3567;52.444;13.556;2022-11-11T07:24:51;8.60;;;3.88;;
7051;SDS011;3567;52.444;13.556;2022-11-11T07:27:16;6.82;;;3.60;;
7051;SDS011;3567;52.444;13.556;2022-11-11T07:29:41;10.55;;;3.90;;
7051;SDS011;3567;52.444;13.556;2022-11-11T07:32:07;9.18;;;3.50;;
7051;SDS011;3567;52.444;13.556;2022-11-11T07:34:32;7.57;;;3.63;;
7051;SDS011;3567;52.444;13.556;2022-11-11T07:36:58;9.43;;;4.03;;
7051;SDS011;3567;52.444;13.556;2022-11-11T07:39:23;9.15;;;4.05;;
7051;SDS011;3567;52.444;13.556;2022-11-11T07:41:49;8.80;;;3.63;;
7051;SDS011;3567;52.444;13.556;2022-11-11T07:44:14;8.60;;;3.88;;
7051;SDS011;3567;52.444;13.556;2022-11-11T07:46:39;9.70;;;3.63;;
7051;SDS011;3567;52.444;13.556;2022-11-11T07:49:05;8.32;;;3.25;;
7051;SDS011;3567;52.444;13.556;2022-11-11T07:51:30;9.75;;;3.30;;
7051;SDS011;3567;52.444;13.556;2022-11-11T07:53:55;6.45;;;3.38;;
7051;SDS011;3567;52.444;13.556;2022-11-11T07:56:21;9.30;;;3.33;;
7051;SDS011;3567;52.444;13.556;2022-11-11T07:58:46;6.45;;;2.92;;
7051;SDS011;3567;52.444;13.556;2022-11-11T08:01:11;7.85;;;3.17;;
7051;SDS011;3567;52.444;13.556;2022-11-11T08:03:37;11.10;;;3.40;;
7051;SDS011;3567;52.444;13.556;2022-11-11T08:06:13;5.22;;;3.05;;
7051;SDS011;3567;52.444;13.556;2022-11-11T08:08:40;7.22;;;3.47;;
7051;SDS011;3567;52.444;13.556;2022-11-11T08:11:05;8.20;;;3.30;;
7051;SDS011;3567;52.444;13.556;2022-11-11T08:13:30;7.78;;;2.78;;
7051;SDS011;3567;52.444;13.556;2022-11-11T08:16:08;8.18;;;3.17;;
7051;SDS011;3567;52.444;13.556;2022-11-11T08:18:33;9.93;;;3.75;;
7051;SDS011;3567;52.444;13.556;2022-11-11T08:20:59;8.15;;;3.17;;
7051;SDS011;3567;52.444;13.556;2022-11-11T08:23:25;8.80;;;3.35;;
7051;SDS011;3567;52.444;13.556;2022-11-11T08:26:00;7.10;;;3.10;;
7051;SDS011;3567;52.444;13.556;2022-11-11T08:28:27;9.15;;;3.45;;
7051;SDS011;3567;52.444;13.556;2022-11-11T08:30:53;7.97;;;2.83;;
7051;SDS011;3567;52.444;13.556;2022-11-11T08:33:19;12.77;;;3.55;;
7051;SDS011;3567;52.444;13.556;2022-11-11T08:35:45;4.88;;;2.80;;
7051;SDS011;3567;52.444;13.556;2022-11-11T08:38:11;5.85;;;3.10;;
7051;SDS011;3567;52.444;13.556;2022-11-11T08:40:37;9.30;;;2.85;;
7051;SDS011;3567;52.444;13.556;2022-11-11T08:43:03;9.18;;;3.17;;
7051;SDS011;3567;52.444;13.556;2022-11-11T08:45:29;9.85;;;3.15;;
7051;SDS011;3567;52.444;13.556;2022-11-11T08:47:54;7.43;;;2.80;;
7051;SDS011;3567;52.444;13.556;2022-11-11T08:50:20;7.53;;;2.85;;
7051;SDS011;3567;52.444;13.556;2022-11-11T08:52:49;7.00;;;3.05;;
7051;SDS011;3567;52.444;13.556;2022-11-11T08:55:15;7.35;;;3.00;;
7051;SDS011;3567;52.444;13.556;2022-11-11T08:57:41;5.72;;;2.13;;
7051;SDS011;3567;52.444;13.556;2022-11-11T09:00:07;5.30;;;2.90;;
7051;SDS011;3567;52.444;13.556;2022-11-11T09:02:33;9.07;;;3.40;;
7051;SDS011;3567;52.444;13.556;2022-11-11T09:04:59;8.68;;;2.95;;
7051;SDS011;3567;52.444;13.556;2022-11-11T09:07:24;13.25;;;3.30;;
7051;SDS011;3567;52.444;13.556;2022-11-11T09:09:50;10.85;;;2.85;;
7051;SDS011;3567;52.444;13.556;2022-11-11T09:12:15;6.97;;;2.95;;
7051;SDS011;3567;52.444;13.556;2022-11-11T09:14:40;6.55;;;2.80;;
7051;SDS011;3567;52.444;13.556;2022-11-11T09:17:06;8.60;;;2.33;;
7051;SDS011;3567;52.444;13.556;2022-11-11T09:19:32;5.68;;;2.22;;
7051;SDS011;3567;52.444;13.556;2022-11-11T09:21:57;6.32;;;2.15;;
7051;SDS011;3567;52.444;13.556;2022-11-11T09:24:22;3.63;;;1.98;;
7051;SDS011;3567;52.444;13.556;2022-11-11T09:26:48;5.18;;;2.20;;
7051;SDS011;3567;52.444;13.556;2022-11-11T09:29:14;4.78;;;2.15;;
7051;SDS011;3567;52.444;13.556;2022-11-11T09:31:40;6.10;;;2.00;;
7051;SDS011;3567;52.444;13.556;2022-11-11T09:34:05;8.52;;;2.85;;
7051;SDS011;3567;52.444;13.556;2022-11-11T09:36:31;8.13;;;2.63;;
7051;SDS011;3567;52.444;13.556;2022-11-11T09:38:57;5.70;;;2.28;;
7051;SDS011;3567;52.444;13.556;2022-11-11T09:41:26;6.07;;;2.20;;
7051;SDS011;3567;52.444;13.556;2022-11-11T09:44:21;9.25;;;2.50;;
7051;SDS011;3567;52.444;13.556;2022-11-11T09:47:13;16.17;;;2.88;;
7051;SDS011;3567;52.444;13.556;2022-11-11T09:52:59;4.18;;;1.50;;
7051;SDS011;3567;52.444;13.556;2022-11-11T09:57:57;4.70;;;2.30;;
7051;SDS011;3567;52.444;13.556;2022-11-11T10:00:28;5.85;;;2.22;;
7051;SDS011;3567;52.444;13.556;2022-11-11T10:02:58;10.93;;;3.00;;
7051;SDS011;3567;52.444;13.556;2022-11-11T10:05:31;8.50;;;2.50;;
7051;SDS011;3567;52.444;13.556;2022-11-11T10:08:24;5.03;;;2.20;;
7051;SDS011;3567;52.444;13.556;2022-11-11T10:10:51;5.03;;;2.08;;
7051;SDS011;3567;52.444;13.556;2022-11-11T10:13:19;5.40;;;2.05;;
7051;SDS011;3567;52.444;13.556;2022-11-11T10:21:36;5.55;;;2.25;;
7051;SDS011;3567;52.444;13.556;2022-11-11T10:24:16;9.57;;;2.25;;
7051;SDS011;3567;52.444;13.556;2022-11-11T10:26:51;6.60;;;2.30;;
7051;SDS011;3567;52.444;13.556;2022-11-11T10:29:17;6.18;;;2.40;;
7051;SDS011;3567;52.444;13.556;2022-11-11T10:31:44;7.68;;;2.60;;
7051;SDS011;3567;52.444;13.556;2022-11-11T10:34:19;6.28;;;2.78;;
7051;SDS011;3567;52.444;13.556;2022-11-11T10:36:48;7.38;;;2.58;;
7051;SDS011;3567;52.444;13.556;2022-11-11T10:39:17;5.53;;;2.25;;
7051;SDS011;3567;52.444;13.556;2022-11-11T10:41:49;9.02;;;2.38;;
7051;SDS011;3567;52.444;13.556;2022-11-11T10:44:25;8.05;;;2.40;;
7051;SDS011;3567;52.444;13.556;2022-11-11T10:49:37;10.25;;;2.42;;
7051;SDS011;3567;52.444;13.556;2022-11-11T10:52:18;4.50;;;2.10;;
7051;SDS011;3567;52.444;13.556;2022-11-11T10:54:49;3.95;;;2.42;;
7051;SDS011;3567;52.444;13.556;2022-11-11T10:57:25;4.03;;;2.20;;
7051;SDS011;3567;52.444;13.556;2022-11-11T10:59:57;5.07;;;2.17;;
7051;SDS011;3567;52.444;13.556;2022-11-11T11:02:32;3.92;;;1.70;;
7051;SDS011;3567;52.444;13.556;2022-11-11T11:05:05;4.85;;;1.88;;
7051;SDS011;3567;52.444;13.556;2022-11-11T11:07:37;4.75;;;2.10;;
7051;SDS011;3567;52.444;13.556;2022-11-11T11:10:10;4.55;;;1.88;;
7051;SDS011;3567;52.444;13.556;2022-11-11T11:12:37;5.72;;;1.95;;
7051;SDS011;3567;52.444;13.556;2022-11-11T11:15:09;4.20;;;1.48;;
7051;SDS011;3567;52.444;13.556;2022-11-11T11:17:39;6.15;;;2.10;;
7051;SDS011;3567;52.444;13.556;2022-11-11T11:20:22;5.20;;;1.90;;
7051;SDS011;3567;52.444;13.556;2022-11-11T11:22:51;5.28;;;2.08;;
7051;SDS011;3567;52.444;13.556;2022-11-11T11:25:20;4.47;;;1.77;;
7051;SDS011;3567;52.444;13.556;2022-11-11T11:27:48;3.97;;;1.55;;
7051;SDS011;3567;52.444;13.556;2022-11-11T11:30:16;4.68;;;1.80;;
7051;SDS011;3567;52.444;13.556;2022-11-11T11:32:54;4.65;;;1.77;;
7051;SDS011;3567;52.444;13.556;2022-11-11T11:38:04;4.00;;;2.10;;
7051;SDS011;3567;52.444;13.556;2022-11-11T11:43:35;10.00;;;2.42;;
7051;SDS011;3567;52.444;13.556;2022-11-11T11:46:26;3.78;;;1.70;;
7051;SDS011;3567;52.444;13.556;2022-11-11T11:56:49;2.10;;;1.40;;
7051;SDS011;3567;52.444;13.556;2022-11-11T11:59:29;5.05;;;1.73;;
7051;SDS011;3567;52.444;13.556;2022-11-11T12:04:38;4.78;;;2.15;;
7051;SDS011;3567;52.444;13.556;2022-11-11T12:29:47;5.07;;;1.95;;
7051;SDS011;3567;52.444;13.556;2022-11-11T12:34:25;8.57;;;2.53;;
7051;SDS011;3567;52.444;13.556;2022-11-11T12:37:09;6.25;;;1.80;;
7051;SDS011;3567;52.444;13.556;2022-11-11T12:44:54;5.07;;;2.65;;
7051;SDS011;3567;52.444;13.556;2022-11-11T12:47:53;4.60;;;2.60;;
7051;SDS011;3567;52.444;13.556;2022-11-11T12:50:38;3.45;;;1.73;;
7051;SDS011;3567;52.444;13.556;2022-11-11T13:01:50;3.35;;;1.50;;
7051;SDS011;3567;52.444;13.556;2022-11-11T13:15:59;4.25;;;1.80;;
7051;SDS011;3567;52.444;13.556;2022-11-11T13:18:26;3.17;;;1.48;;
7051;SDS011;3567;52.444;13.556;2022-11-11T13:21:02;6.35;;;2.13;;
7051;SDS011;3567;52.444;13.556;2022-11-11T13:23:31;8.23;;;1.63;;
7051;SDS011;3567;52.444;13.556;2022-11-11T13:26:02;5.32;;;1.73;;
7051;SDS011;3567;52.444;13.556;2022-11-11T13:28:37;5.28;;;1.50;;
7051;SDS011;3567;52.444;13.556;2022-11-11T13:31:08;4.78;;;1.98;;
7051;SDS011;3567;52.444;13.556;2022-11-11T13:33:43;7.97;;;3.30;;
7051;SDS011;3567;52.444;13.556;2022-11-11T13:36:16;7.57;;;2.17;;
7051;SDS011;3567;52.444;13.556;2022-11-11T13:41:12;5.65;;;1.85;;
7051;SDS011;3567;52.444;13.556;2022-11-11T13:43:47;3.30;;;1.77;;
7051;SDS011;3567;52.444;13.556;2022-11-11T13:49:04;3.17;;;1.50;;
7051;SDS011;3567;52.444;13.556;2022-11-11T13:54:00;8.77;;;1.88;;
7051;SDS011;3567;52.444;13.556;2022-11-11T13:56:35;7.43;;;2.50;;
7051;SDS011;3567;52.444;13.556;2022-11-11T13:59:02;5.78;;;2.30;;
7051;SDS011;3567;52.444;13.556;2022-11-11T14:01:32;6.07;;;3.53;;
7051;SDS011;3567;52.444;13.556;2022-11-11T14:04:01;4.88;;;3.17;;
7051;SDS011;3567;52.444;13.556;2022-11-11T14:06:34;4.60;;;2.95;;
7051;SDS011;3567;52.444;13.556;2022-11-11T14:09:02;4.38;;;1.95;;
7051;SDS011;3567;52.444;13.556;2022-11-11T14:11:29;3.60;;;1.98;;
7051;SDS011;3567;52.444;13.556;2022-11-11T14:14:44;6.00;;;2.03;;
7051;SDS011;3567;52.444;13.556;2022-11-11T14:17:00;4.82;;;2.00;;
7051;SDS011;3567;52.444;13.556;2022-11-11T14:19:28;2.72;;;1.60;;
7051;SDS011;3567;52.444;13.556;2022-11-11T14:21:55;5.22;;;1.83;;
7051;SDS011;3567;52.444;13.556;2022-11-11T14:24:43;6.47;;;2.90;;
7051;SDS011;3567;52.444;13.556;2022-11-11T14:29:35;7.40;;;2.47;;
7051;SDS011;3567;52.444;13.556;2022-11-11T14:34:42;7.13;;;2.88;;
7051;SDS011;3567;52.444;13.556;2022-11-11T14:37:38;5.32;;;2.20;;
7051;SDS011;3567;52.444;13.556;2022-11-11T14:40:27;4.75;;;2.17;;
7051;SDS011;3567;52.444;13.556;2022-11-11T14:42:56;5.57;;;2.33;;
7051;SDS011;3567;52.444;13.556;2022-11-11T14:47:47;5.15;;;2.20;;
7051;SDS011;3567;52.444;13.556;2022-11-11T14:52:58;4.30;;;2.40;;
7051;SDS011;3567;52.444;13.556;2022-11-11T14:55:31;9.52;;;2.45;;
7051;SDS011;3567;52.444;13.556;2022-11-11T15:00:43;5.28;;;1.83;;
7051;SDS011;3567;52.444;13.556;2022-11-11T15:03:33;4.80;;;2.55;;
7051;SDS011;3567;52.444;13.556;2022-11-11T15:08:44;8.45;;;2.28;;
7051;SDS011;3567;52.444;13.556;2022-11-11T15:11:27;9.40;;;2.95;;
7051;SDS011;3567;52.444;13.556;2022-11-11T15:17:23;3.33;;;2.22;;
7051;SDS011;3567;52.444;13.556;2022-11-11T15:27:57;7.18;;;1.90;;
7051;SDS011;3567;52.444;13.556;2022-11-11T15:30:39;4.45;;;1.55;;
7051;SDS011;3567;52.444;13.556;2022-11-11T15:33:16;10.70;;;2.63;;
7051;SDS011;3567;52.444;13.556;2022-11-11T15:35:54;8.00;;;1.73;;
7051;SDS011;3567;52.444;13.556;2022-11-11T15:38:26;4.82;;;2.28;;
7051;SDS011;3567;52.444;13.556;2022-11-11T15:40:53;13.07;;;2.60;;
7051;SDS011;3567;52.444;13.556;2022-11-11T15:43:26;3.55;;;1.73;;
7051;SDS011;3567;52.444;13.556;2022-11-11T15:45:55;3.95;;;1.65;;
7051;SDS011;3567;52.444;13.556;2022-11-11T15:53:45;6.72;;;2.75;;
7051;SDS011;3567;52.444;13.556;2022-11-11T15:56:11;5.30;;;1.98;;
7051;SDS011;3567;52.444;13.556;2022-11-11T15:58:36;2.97;;;1.67;;
7051;SDS011;3567;52.444;13.556;2022-11-11T16:01:03;5.43;;;2.10;;
7051;SDS011;3567;52.444;13.556;2022-11-11T16:03:32;6.05;;;2.58;;
7051;SDS011;3567;52.444;13.556;2022-11-11T16:06:04;5.10;;;2.55;;
7051;SDS011;3567;52.444;13.556;2022-11-11T16:08:33;13.38;;;8.88;;
7051;SDS011;3567;52.444;13.556;2022-11-11T16:10:59;9.68;;;4.60;;
7051;SDS011;3567;52.444;13.556;2022-11-11T16:13:33;12.90;;;8.35;;
7051;SDS011;3567;52.444;13.556;2022-11-11T16:16:03;8.02;;;4.78;;
7051;SDS011;3567;52.444;13.556;2022-11-11T16:18:39;4.97;;;4.03;;
7051;SDS011;3567;52.444;13.556;2022-11-11T16:21:11;8.68;;;5.05;;
7051;SDS011;3567;52.444;13.556;2022-11-11T16:23:40;12.10;;;6.65;;
7051;SDS011;3567;52.444;13.556;2022-11-11T16:26:06;8.40;;;5.10;;
7051;SDS011;3567;52.444;13.556;2022-11-11T16:28:36;9.80;;;5.88;;
7051;SDS011;3567;52.444;13.556;2022-11-11T16:36:59;9.82;;;7.22;;
7051;SDS011;3567;52.444;13.556;2022-11-11T16:39:27;6.97;;;4.72;;
7051;SDS011;3567;52.444;13.556;2022-11-11T16:41:54;6.55;;;3.88;;
7051;SDS011;3567;52.444;13.556;2022-11-11T16:46:52;9.80;;;4.13;;
7051;SDS011;3567;52.444;13.556;2022-11-11T16:51:58;6.90;;;4.03;;
7051;SDS011;3567;52.444;13.556;2022-11-11T16:54:38;6.82;;;3.85;;
7051;SDS011;3567;52.444;13.556;2022-11-11T16:57:15;4.88;;;3.53;;
7051;SDS011;3567;52.444;13.556;2022-11-11T17:00:04;9.15;;;3.53;;
7051;SDS011;3567;52.444;13.556;2022-11-11T17:02:29;6.68;;;3.63;;
7051;SDS011;3567;52.444;13.556;2022-11-11T17:04:56;6.95;;;3.92;;
7051;SDS011;3567;52.444;13.556;2022-11-11T17:07:26;9.07;;;4.35;;
7051;SDS011;3567;52.444;13.556;2022-11-11T17:10:01;7.13;;;4.03;;
7051;SDS011;3567;52.444;13.556;2022-11-11T17:12:33;8.63;;;5.05;;
7051;SDS011;3567;52.444;13.556;2022-11-11T17:15:01;5.93;;;4.63;;
7051;SDS011;3567;52.444;13.556;2022-11-11T17:17:32;12.75;;;4.60;;
7051;SDS011;3567;52.444;13.556;2022-11-11T17:19:59;7.60;;;4.75;;
7051;SDS011;3567;52.444;13.556;2022-11-11T17:22:27;7.97;;;4.88;;
7051;SDS011;3567;52.444;13.556;2022-11-11T17:24:52;10.02;;;5.22;;
7051;SDS011;3567;52.444;13.556;2022-11-11T17:27:17;10.73;;;4.95;;
7051;SDS011;3567;52.444;13.556;2022-11-11T17:29:43;9.52;;;5.22;;
7051;SDS011;3567;52.444;13.556;2022-11-11T17:32:08;9.15;;;5.32;;